< < Back
Terminal Aerodrome Forecast


Current Version              Previous Versions:   1  2  3  4  5  6  7  8  9  

Terminal Aerodrome Forecast

795
FTUS42 KILM 282300
TAFFLO
TAF
KFLO 282320Z 2900/2924 30011KT P6SM SCT040 BKN250
     FM290600 01007KT P6SM SCT040
     FM291300 04010KT P6SM FEW040=

Latest METAR

553
SAUS70 KWBC 292300 RRG
MTRFLO
METAR KFLO 292253Z 02006KT 10SM SCT100 28/17 A2991 RMK AO2 SLP127
T02830172


USA.gov is the U.S. government's official web portal to all federal, state and local government web resources and services.